Prattville, California
Current Conditions -  °F | °C
As of 10:35 PM on Monday 20 Oct 2014 (Local Time) from KCIC Reporting Station
Few Clouds Few Clouds  
Wind Chill: 59°   Ceiling: Unl
Heat Index: 59°   Visibility: 10mi
Dew Point: 46°   Wind: 7mph
Humidity: 63%   Direction: 110°ESE
Pressure: 29.99"   Gusts: NA
Location:  40.2035°N, 121.147°W
Report Text: KCIC 210535Z AUTO 11006KT 10SM FEW075 15/08 A2999 RMK AO1
Loading
Personal Weather Stations






























Interactive Weather Map
Tropical Storm Tracking
New forecast layout! Learn more

10-Day Weather Forecast

Advertisements
Track Severe Weather on mobile